sensor_id;sensor_type;location;lat;lon;timestamp;temperature;humidity
43541;DHT22;29549;40.386;-3.710;2022-12-07T00:09:15;11.90;83.80
43541;DHT22;29549;40.386;-3.710;2022-12-07T00:19:35;11.90;83.90
43541;DHT22;29549;40.386;-3.710;2022-12-07T00:29:52;11.80;83.80
43541;DHT22;29549;40.386;-3.710;2022-12-07T00:40:00;11.90;83.90
43541;DHT22;29549;40.386;-3.710;2022-12-07T00:50:04;11.80;84.00
43541;DHT22;29549;40.386;-3.710;2022-12-07T01:00:08;11.70;84.10
43541;DHT22;29549;40.386;-3.710;2022-12-07T01:10:10;11.70;84.20
43541;DHT22;29549;40.386;-3.710;2022-12-07T01:20:14;11.70;84.20
43541;DHT22;29549;40.386;-3.710;2022-12-07T01:30:18;11.60;84.40
43541;DHT22;29549;40.386;-3.710;2022-12-07T01:40:21;11.50;84.50
43541;DHT22;29549;40.386;-3.710;2022-12-07T01:50:26;11.50;84.50
43541;DHT22;29549;40.386;-3.710;2022-12-07T02:00:30;11.40;84.40
43541;DHT22;29549;40.386;-3.710;2022-12-07T02:10:34;11.40;84.20
43541;DHT22;29549;40.386;-3.710;2022-12-07T02:21:03;11.20;84.30
43541;DHT22;29549;40.386;-3.710;2022-12-07T02:31:18;11.20;84.60
43541;DHT22;29549;40.386;-3.710;2022-12-07T02:41:40;11.10;84.70
43541;DHT22;29549;40.386;-3.710;2022-12-07T02:51:58;11.10;84.80
43541;DHT22;29549;40.386;-3.710;2022-12-07T03:23:10;11.20;84.90
43541;DHT22;29549;40.386;-3.710;2022-12-07T03:33:39;11.20;84.90
43541;DHT22;29549;40.386;-3.710;2022-12-07T03:43:56;11.20;85.00
43541;DHT22;29549;40.386;-3.710;2022-12-07T03:54:26;11.20;84.90
43541;DHT22;29549;40.386;-3.710;2022-12-07T04:04:31;11.20;84.80
43541;DHT22;29549;40.386;-3.710;2022-12-07T04:14:34;11.20;84.90
43541;DHT22;29549;40.386;-3.710;2022-12-07T04:24:38;11.20;84.90
43541;DHT22;29549;40.386;-3.710;2022-12-07T04:34:42;11.20;85.00
43541;DHT22;29549;40.386;-3.710;2022-12-07T04:44:47;11.10;84.90
43541;DHT22;29549;40.386;-3.710;2022-12-07T04:54:51;11.10;84.90
43541;DHT22;29549;40.386;-3.710;2022-12-07T05:04:54;11.10;84.70
43541;DHT22;29549;40.386;-3.710;2022-12-07T05:14:56;11.00;84.80
43541;DHT22;29549;40.386;-3.710;2022-12-07T05:24:59;10.90;84.80
43541;DHT22;29549;40.386;-3.710;2022-12-07T05:35:02;10.90;84.70
43541;DHT22;29549;40.386;-3.710;2022-12-07T05:45:05;10.80;84.80
43541;DHT22;29549;40.386;-3.710;2022-12-07T05:55:07;10.80;84.80
43541;DHT22;29549;40.386;-3.710;2022-12-07T06:05:08;10.80;84.70
43541;DHT22;29549;40.386;-3.710;2022-12-07T06:15:11;10.80;84.80
43541;DHT22;29549;40.386;-3.710;2022-12-07T06:25:15;10.80;84.80
43541;DHT22;29549;40.386;-3.710;2022-12-07T06:35:17;10.80;84.60
43541;DHT22;29549;40.386;-3.710;2022-12-07T06:45:19;10.70;84.90
43541;DHT22;29549;40.386;-3.710;2022-12-07T06:55:20;10.70;84.90
43541;DHT22;29549;40.386;-3.710;2022-12-07T07:05:22;10.90;84.80
43541;DHT22;29549;40.386;-3.710;2022-12-07T07:15:24;11.10;84.70
43541;DHT22;29549;40.386;-3.710;2022-12-07T07:25:25;11.10;84.60
43541;DHT22;29549;40.386;-3.710;2022-12-07T07:35:28;11.20;84.60
43541;DHT22;29549;40.386;-3.710;2022-12-07T07:45:30;11.20;84.50
43541;DHT22;29549;40.386;-3.710;2022-12-07T07:55:32;11.20;84.50
43541;DHT22;29549;40.386;-3.710;2022-12-07T08:05:34;11.20;84.50
43541;DHT22;29549;40.386;-3.710;2022-12-07T08:15:37;11.40;84.40
43541;DHT22;29549;40.386;-3.710;2022-12-07T08:25:39;11.50;84.10
43541;DHT22;29549;40.386;-3.710;2022-12-07T08:35:40;11.50;83.90
43541;DHT22;29549;40.386;-3.710;2022-12-07T08:45:42;11.60;83.70
43541;DHT22;29549;40.386;-3.710;2022-12-07T08:55:45;11.70;83.50
43541;DHT22;29549;40.386;-3.710;2022-12-07T09:05:47;11.80;83.10
43541;DHT22;29549;40.386;-3.710;2022-12-07T09:15:49;11.90;82.70
43541;DHT22;29549;40.386;-3.710;2022-12-07T09:25:51;12.00;82.00
43541;DHT22;29549;40.386;-3.710;2022-12-07T09:35:53;12.10;81.40
43541;DHT22;29549;40.386;-3.710;2022-12-07T09:45:55;12.20;81.30
43541;DHT22;29549;40.386;-3.710;2022-12-07T09:55:57;12.30;80.70
43541;DHT22;29549;40.386;-3.710;2022-12-07T10:06:00;12.40;79.60
43541;DHT22;29549;40.386;-3.710;2022-12-07T10:16:01;13.50;73.80
43541;DHT22;29549;40.386;-3.710;2022-12-07T10:26:32;14.10;71.80
43541;DHT22;29549;40.386;-3.710;2022-12-07T10:36:36;14.20;71.40
43541;DHT22;29549;40.386;-3.710;2022-12-07T10:47:27;14.40;71.10
43541;DHT22;29549;40.386;-3.710;2022-12-07T11:17:20;14.70;70.60
43541;DHT22;29549;40.386;-3.710;2022-12-07T11:28:07;14.90;70.00
43541;DHT22;29549;40.386;-3.710;2022-12-07T11:38:17;15.10;69.40
43541;DHT22;29549;40.386;-3.710;2022-12-07T11:49:33;15.20;69.50
43541;DHT22;29549;40.386;-3.710;2022-12-07T11:59:08;15.20;68.90
43541;DHT22;29549;40.386;-3.710;2022-12-07T12:09:41;15.20;69.30
43541;DHT22;29549;40.386;-3.710;2022-12-07T12:30:06;15.30;67.50
43541;DHT22;29549;40.386;-3.710;2022-12-07T13:00:22;14.30;68.90
43541;DHT22;29549;40.386;-3.710;2022-12-07T13:20:46;14.20;70.10
43541;DHT22;29549;40.386;-3.710;2022-12-07T13:31:09;14.30;70.90
43541;DHT22;29549;40.386;-3.710;2022-12-07T13:41:16;14.40;70.10
43541;DHT22;29549;40.386;-3.710;2022-12-07T13:51:19;14.30;70.30
43541;DHT22;29549;40.386;-3.710;2022-12-07T14:01:22;14.30;70.50
43541;DHT22;29549;40.386;-3.710;2022-12-07T14:11:29;14.20;70.10
43541;DHT22;29549;40.386;-3.710;2022-12-07T14:21:34;14.40;69.40
43541;DHT22;29549;40.386;-3.710;2022-12-07T14:31:36;14.20;69.70
43541;DHT22;29549;40.386;-3.710;2022-12-07T14:41:38;14.30;68.40
43541;DHT22;29549;40.386;-3.710;2022-12-07T14:51:52;14.40;68.80
43541;DHT22;29549;40.386;-3.710;2022-12-07T15:01:54;14.40;69.00
43541;DHT22;29549;40.386;-3.710;2022-12-07T15:11:56;14.30;68.80
43541;DHT22;29549;40.386;-3.710;2022-12-07T15:21:58;14.20;70.30
43541;DHT22;29549;40.386;-3.710;2022-12-07T15:32:01;14.20;70.50
43541;DHT22;29549;40.386;-3.710;2022-12-07T15:42:03;14.10;70.70
43541;DHT22;29549;40.386;-3.710;2022-12-07T15:52:05;14.00;70.30
43541;DHT22;29549;40.386;-3.710;2022-12-07T16:02:09;13.90;70.80
43541;DHT22;29549;40.386;-3.710;2022-12-07T16:12:12;13.90;71.00
43541;DHT22;29549;40.386;-3.710;2022-12-07T16:22:13;13.80;71.30
43541;DHT22;29549;40.386;-3.710;2022-12-07T16:32:15;14.20;69.60
43541;DHT22;29549;40.386;-3.710;2022-12-07T16:42:17;13.90;71.00
43541;DHT22;29549;40.386;-3.710;2022-12-07T16:52:22;13.70;71.70
43541;DHT22;29549;40.386;-3.710;2022-12-07T17:02:23;13.60;72.00
43541;DHT22;29549;40.386;-3.710;2022-12-07T17:12:25;13.50;72.50
43541;DHT22;29549;40.386;-3.710;2022-12-07T17:22:27;13.40;73.00
43541;DHT22;29549;40.386;-3.710;2022-12-07T17:32:29;13.30;73.70
43541;DHT22;29549;40.386;-3.710;2022-12-07T17:42:30;13.20;74.10
43541;DHT22;29549;40.386;-3.710;2022-12-07T17:52:39;13.30;74.80
43541;DHT22;29549;40.386;-3.710;2022-12-07T18:02:59;13.20;74.60
43541;DHT22;29549;40.386;-3.710;2022-12-07T18:13:01;13.50;73.60
43541;DHT22;29549;40.386;-3.710;2022-12-07T18:23:21;13.20;75.00
43541;DHT22;29549;40.386;-3.710;2022-12-07T18:33:23;13.00;75.80
43541;DHT22;29549;40.386;-3.710;2022-12-07T18:43:25;12.90;76.00
43541;DHT22;29549;40.386;-3.710;2022-12-07T18:53:27;12.90;76.30
43541;DHT22;29549;40.386;-3.710;2022-12-07T19:03:29;12.70;76.60
43541;DHT22;29549;40.386;-3.710;2022-12-07T19:13:31;12.60;76.90
43541;DHT22;29549;40.386;-3.710;2022-12-07T19:23:33;12.50;77.30
43541;DHT22;29549;40.386;-3.710;2022-12-07T19:33:35;12.30;77.60
43541;DHT22;29549;40.386;-3.710;2022-12-07T19:43:43;12.20;77.90
43541;DHT22;29549;40.386;-3.710;2022-12-07T19:53:45;12.00;78.30
43541;DHT22;29549;40.386;-3.710;2022-12-07T20:03:47;11.90;78.80
43541;DHT22;29549;40.386;-3.710;2022-12-07T20:13:48;11.70;78.90
43541;DHT22;29549;40.386;-3.710;2022-12-07T20:23:50;11.60;79.20
43541;DHT22;29549;40.386;-3.710;2022-12-07T20:33:52;11.40;79.50
43541;DHT22;29549;40.386;-3.710;2022-12-07T20:43:54;11.30;79.60
43541;DHT22;29549;40.386;-3.710;2022-12-07T20:53:56;11.20;79.50
43541;DHT22;29549;40.386;-3.710;2022-12-07T21:03:59;11.10;79.70
43541;DHT22;29549;40.386;-3.710;2022-12-07T21:14:01;11.00;80.00
43541;DHT22;29549;40.386;-3.710;2022-12-07T21:24:04;11.00;80.10
43541;DHT22;29549;40.386;-3.710;2022-12-07T21:34:06;10.90;80.20
43541;DHT22;29549;40.386;-3.710;2022-12-07T21:44:08;10.80;80.20
43541;DHT22;29549;40.386;-3.710;2022-12-07T21:54:13;10.60;79.90
43541;DHT22;29549;40.386;-3.710;2022-12-07T22:04:21;10.50;79.80
43541;DHT22;29549;40.386;-3.710;2022-12-07T22:14:23;10.40;80.00
43541;DHT22;29549;40.386;-3.710;2022-12-07T22:24:44;10.30;79.80
43541;DHT22;29549;40.386;-3.710;2022-12-07T22:34:45;10.20;79.90
43541;DHT22;29549;40.386;-3.710;2022-12-07T22:44:47;10.30;79.40
43541;DHT22;29549;40.386;-3.710;2022-12-07T22:54:50;10.20;79.30
43541;DHT22;29549;40.386;-3.710;2022-12-07T23:04:51;10.20;79.40
43541;DHT22;29549;40.386;-3.710;2022-12-07T23:14:54;10.20;79.50
43541;DHT22;29549;40.386;-3.710;2022-12-07T23:24:55;10.20;79.40
43541;DHT22;29549;40.386;-3.710;2022-12-07T23:34:57;10.00;79.80
43541;DHT22;29549;40.386;-3.710;2022-12-07T23:44:58;10.00;80.00
43541;DHT22;29549;40.386;-3.710;2022-12-07T23:55:00;10.10;80.00
